Список аэропортов
Фактическая погода:

26 апреля, 12:00
Температура: +9°C (+6.0*)
Ветер: юго-восточный 6 м/с
Давление: *752 мм
неб. облачность
кучево-дождевые 900 м
облачно
2970 м
Время (МСК)Темп. СВетерВлажностьДавлениеОблачностьОсадки
09:00+7Ю, 3 м/с49%1004 гПамалооблачно
10:00+9Ю, 3 м/с44%1004 гПамалооблачно
11:00+10Ю, 4 м/с41%1004 гПаоблачно
12:00+10Ю, 4 м/с45%1003 гПаоблачно
13:00+10Ю, 4 м/с48%1003 гПаоблачносл. дождь
14:00+10Ю, 4 м/с50%1002 гПаоблачносл. дождь
15:00+7Ю, 3 м/с75%1002 гПаоблачнодождь
16:00+6ЮВ, 1 м/с94%1002 гПаоблачнодождь
17:00+6ЮВ, 2 м/с96%1001 гПаоблачносл. дождь
18:00+5ЮВ, 2 м/с96%1001 гПаоблачносл. дождь
19:00+5ЮВ, 2 м/с96%1001 гПаоблачно
20:00+5ЮВ, 2 м/с96%1001 гПаоблачносл. дождь
21:00+4ЮВ, 2 м/с96%1001 гПаоблачнодождь
22:00+4ЮВ, 2 м/с96%1001 гПаоблачносл. дождь
23:00+4ЮВ, 2 м/с97%1001 гПаоблачно
27 апреля
00:00+3ЮВ, 2 м/с97%1000 гПаоблачно
01:00+3ЮВ, 2 м/с97%1000 гПаоблачно
02:00+2ЮВ, 1 м/с99%1000 гПас прояснениями
03:000В, 1 м/с99%1000 гПамалооблачно
04:00-1В, 1 м/с99%1000 гПас прояснениями
05:00-0В, 1 м/с99%1000 гПаоблачно
06:00+1ЮВ, 1 м/с99%1000 гПаоблачно
07:00+2ЮВ, 1 м/с99%1000 гПаоблачно
08:00+4ЮВ, 1 м/с98%1000 гПаоблачно
09:00+6ЮВ, 1 м/с97%1000 гПаоблачно
10:00+7ЮВ, 1 м/с94%1001 гПаоблачно
11:00+8ЮВ, 1 м/с91%1001 гПаоблачно
12:00+9Ю, 1 м/с83%1001 гПаоблачно
13:00+12Ю, 1 м/с67%1002 гПаоблачно
14:00+11Ю, 2 м/с67%1002 гПаоблачно
15:00+11Ю, 2 м/с67%1002 гПаоблачно
16:00+10Ю, 2 м/с71%1002 гПаоблачно
17:00+9Ю, 2 м/с85%1002 гПаоблачносл. дождь
18:00+7Ю, 2 м/с97%1003 гПаоблачнодождь
19:00+6ЮЗ, 2 м/с98%1003 гПаоблачнодождь
20:00+5З, 3 м/с98%1004 гПаоблачнодождь
21:00+4З, 2 м/с98%1004 гПаоблачнодождь
22:00+4ЮЗ, 2 м/с99%1005 гПаоблачнодождь
23:00+4Ю, 2 м/с99%1005 гПаоблачнодождь
28 апреля
00:00+3ЮЗ, 2 м/с99%1005 гПаоблачносл. дождь
01:00+3ЮЗ, 2 м/с99%1005 гПаоблачно
02:00+2ЮЗ, 2 м/с99%1005 гПас прояснениями
03:00+1ЮЗ, 2 м/с99%1005 гПаоблачно
04:00+1ЮЗ, 2 м/с99%1005 гПаоблачно
05:00+1ЮЗ, 2 м/с99%1005 гПаоблачно
06:00+1Ю, 2 м/с99%1005 гПаоблачно
07:00+3Ю, 2 м/с98%1004 гПас прояснениями
08:00+4ЮЗ, 2 м/с96%1004 гПас прояснениями
09:00+6ЮЗ, 2 м/с94%1004 гПаоблачно